Forside
METAR-TAF:

METAR-TAF

Lufthavne :

Austin, Minnesota, USA

Breddekreds: 43-40N, længdekreds: 092-56W, højde: 375 m

Aktuelle vejr

Denne rapport blev lavet for 27 minutter siden, kl. 23:15 UTC
Vind 7 kt fra sydsydvest
Temperatur 30°C
Fugtighed 33%
Tryk 1016 hPa
Sigt: 16.1 km
skyfri

METAR: KAUM 162315Z AUTO 20007KT 10SM CLR 30/12 A2999 RMK AO2

Tid: 18:42 (23:42 UTC)


TAF: fraværende

Vejrobservationer og prognoser fra mere end 4000 lufthavne (METAR og TAF).

De gule og røde prikker repræsenterer de meteorologiske stationer.

Flyt musen over at se navnet på stationen.

Så klik over at se vejr observationer og prognoser.

At skifte det kort: Klik på de grønne knapper med et sort kors for at zoome ind; på den grønne knap med en bindestreg for at zoome ud; eller på de grønne pile for tilstødende kort.


METAR-TAF: